sensor_id;sensor_type;location;lat;lon;timestamp;temperature;humidity
10306;DHT22;5198;52.382;9.020;2022-10-16T00:04:02;14.20;99.90
10306;DHT22;5198;52.382;9.020;2022-10-16T00:08:05;14.20;99.90
10306;DHT22;5198;52.382;9.020;2022-10-16T00:12:08;14.20;99.90
10306;DHT22;5198;52.382;9.020;2022-10-16T00:16:11;14.20;99.90
10306;DHT22;5198;52.382;9.020;2022-10-16T00:20:16;14.10;99.90
10306;DHT22;5198;52.382;9.020;2022-10-16T00:24:19;14.10;99.90
10306;DHT22;5198;52.382;9.020;2022-10-16T00:28:22;14.20;99.90
10306;DHT22;5198;52.382;9.020;2022-10-16T00:32:25;14.20;99.90
10306;DHT22;5198;52.382;9.020;2022-10-16T00:36:29;14.20;99.90
10306;DHT22;5198;52.382;9.020;2022-10-16T00:40:33;14.30;99.90
10306;DHT22;5198;52.382;9.020;2022-10-16T00:44:44;14.30;99.90
10306;DHT22;5198;52.382;9.020;2022-10-16T00:48:48;14.40;99.90
10306;DHT22;5198;52.382;9.020;2022-10-16T00:52:54;14.40;99.90
10306;DHT22;5198;52.382;9.020;2022-10-16T00:56:58;14.40;99.90
10306;DHT22;5198;52.382;9.020;2022-10-16T01:01:02;14.40;99.90
10306;DHT22;5198;52.382;9.020;2022-10-16T01:05:06;14.50;99.90
10306;DHT22;5198;52.382;9.020;2022-10-16T01:09:13;14.50;99.90
10306;DHT22;5198;52.382;9.020;2022-10-16T01:13:18;14.50;99.90
10306;DHT22;5198;52.382;9.020;2022-10-16T01:17:26;14.50;99.90
10306;DHT22;5198;52.382;9.020;2022-10-16T01:21:31;14.50;99.90
10306;DHT22;5198;52.382;9.020;2022-10-16T01:25:55;14.40;99.90
10306;DHT22;5198;52.382;9.020;2022-10-16T01:30:04;14.40;99.90
10306;DHT22;5198;52.382;9.020;2022-10-16T01:34:12;14.50;99.90
10306;DHT22;5198;52.382;9.020;2022-10-16T01:38:16;14.40;99.90
10306;DHT22;5198;52.382;9.020;2022-10-16T01:42:22;14.40;99.90
10306;DHT22;5198;52.382;9.020;2022-10-16T01:46:27;14.40;99.90
10306;DHT22;5198;52.382;9.020;2022-10-16T01:50:31;14.40;99.90
10306;DHT22;5198;52.382;9.020;2022-10-16T01:54:35;14.30;99.90
10306;DHT22;5198;52.382;9.020;2022-10-16T01:58:40;14.30;99.90
10306;DHT22;5198;52.382;9.020;2022-10-16T02:02:46;14.30;99.90
10306;DHT22;5198;52.382;9.020;2022-10-16T02:06:52;14.20;99.90
10306;DHT22;5198;52.382;9.020;2022-10-16T02:10:55;14.20;99.90
10306;DHT22;5198;52.382;9.020;2022-10-16T02:14:58;14.20;99.90
10306;DHT22;5198;52.382;9.020;2022-10-16T02:19:02;14.20;99.90
10306;DHT22;5198;52.382;9.020;2022-10-16T02:23:06;14.20;99.90
10306;DHT22;5198;52.382;9.020;2022-10-16T02:27:13;14.10;99.90
10306;DHT22;5198;52.382;9.020;2022-10-16T02:31:18;14.10;99.90
10306;DHT22;5198;52.382;9.020;2022-10-16T02:35:25;14.10;99.90
10306;DHT22;5198;52.382;9.020;2022-10-16T02:39:29;14.00;99.90
10306;DHT22;5198;52.382;9.020;2022-10-16T02:43:32;14.00;99.90
10306;DHT22;5198;52.382;9.020;2022-10-16T02:47:36;14.00;99.90
10306;DHT22;5198;52.382;9.020;2022-10-16T02:51:40;13.90;99.90
10306;DHT22;5198;52.382;9.020;2022-10-16T02:55:43;13.90;99.90
10306;DHT22;5198;52.382;9.020;2022-10-16T02:59:45;13.90;99.90
10306;DHT22;5198;52.382;9.020;2022-10-16T03:03:48;13.90;99.90
10306;DHT22;5198;52.382;9.020;2022-10-16T03:07:53;13.80;99.90
10306;DHT22;5198;52.382;9.020;2022-10-16T03:11:55;13.80;99.90
10306;DHT22;5198;52.382;9.020;2022-10-16T03:15:58;13.70;99.90
10306;DHT22;5198;52.382;9.020;2022-10-16T03:20:01;13.70;99.90
10306;DHT22;5198;52.382;9.020;2022-10-16T03:24:06;13.70;99.90
10306;DHT22;5198;52.382;9.020;2022-10-16T03:28:09;13.70;99.90
10306;DHT22;5198;52.382;9.020;2022-10-16T03:32:12;13.60;99.90
10306;DHT22;5198;52.382;9.020;2022-10-16T03:36:14;13.60;99.90
10306;DHT22;5198;52.382;9.020;2022-10-16T03:40:19;13.60;99.90
10306;DHT22;5198;52.382;9.020;2022-10-16T03:44:22;13.60;99.90
10306;DHT22;5198;52.382;9.020;2022-10-16T03:48:24;13.60;99.90
10306;DHT22;5198;52.382;9.020;2022-10-16T03:52:27;13.60;99.90
10306;DHT22;5198;52.382;9.020;2022-10-16T03:56:32;13.60;99.90
10306;DHT22;5198;52.382;9.020;2022-10-16T04:00:34;13.60;99.90
10306;DHT22;5198;52.382;9.020;2022-10-16T04:04:37;13.50;99.90
10306;DHT22;5198;52.382;9.020;2022-10-16T04:08:42;13.50;99.90
10306;DHT22;5198;52.382;9.020;2022-10-16T04:12:46;13.50;99.90
10306;DHT22;5198;52.382;9.020;2022-10-16T04:16:49;13.50;99.90
10306;DHT22;5198;52.382;9.020;2022-10-16T04:20:52;13.40;99.90
10306;DHT22;5198;52.382;9.020;2022-10-16T04:24:55;13.40;99.90
10306;DHT22;5198;52.382;9.020;2022-10-16T04:28:59;13.40;99.90
10306;DHT22;5198;52.382;9.020;2022-10-16T04:33:02;13.40;99.90
10306;DHT22;5198;52.382;9.020;2022-10-16T04:37:05;13.40;99.90
10306;DHT22;5198;52.382;9.020;2022-10-16T04:41:08;13.40;99.90
10306;DHT22;5198;52.382;9.020;2022-10-16T04:45:12;13.40;99.90
10306;DHT22;5198;52.382;9.020;2022-10-16T04:49:17;13.40;99.90
10306;DHT22;5198;52.382;9.020;2022-10-16T04:53:20;13.40;99.90
10306;DHT22;5198;52.382;9.020;2022-10-16T04:57:23;13.40;99.90
10306;DHT22;5198;52.382;9.020;2022-10-16T05:01:28;13.40;99.90
10306;DHT22;5198;52.382;9.020;2022-10-16T05:05:31;13.50;99.90
10306;DHT22;5198;52.382;9.020;2022-10-16T05:09:34;13.50;99.90
10306;DHT22;5198;52.382;9.020;2022-10-16T05:13:37;13.50;99.90
10306;DHT22;5198;52.382;9.020;2022-10-16T05:17:41;13.50;99.90
10306;DHT22;5198;52.382;9.020;2022-10-16T05:21:45;13.50;99.90
10306;DHT22;5198;52.382;9.020;2022-10-16T05:25:54;13.50;99.90
10306;DHT22;5198;52.382;9.020;2022-10-16T05:29:59;13.50;99.90
10306;DHT22;5198;52.382;9.020;2022-10-16T05:34:04;13.50;99.90
10306;DHT22;5198;52.382;9.020;2022-10-16T05:38:06;13.50;99.90
10306;DHT22;5198;52.382;9.020;2022-10-16T05:42:09;13.50;99.90
10306;DHT22;5198;52.382;9.020;2022-10-16T05:46:12;13.50;99.90
10306;DHT22;5198;52.382;9.020;2022-10-16T05:50:16;13.40;99.90
10306;DHT22;5198;52.382;9.020;2022-10-16T05:54:19;13.40;99.90
10306;DHT22;5198;52.382;9.020;2022-10-16T05:58:22;13.40;99.90
10306;DHT22;5198;52.382;9.020;2022-10-16T06:02:25;13.40;99.90
10306;DHT22;5198;52.382;9.020;2022-10-16T06:06:30;13.40;99.90
10306;DHT22;5198;52.382;9.020;2022-10-16T06:10:32;13.40;99.90
10306;DHT22;5198;52.382;9.020;2022-10-16T06:14:35;13.40;99.90
10306;DHT22;5198;52.382;9.020;2022-10-16T06:18:38;13.50;99.90
10306;DHT22;5198;52.382;9.020;2022-10-16T06:22:42;13.50;99.90
10306;DHT22;5198;52.382;9.020;2022-10-16T06:26:45;13.50;99.90
10306;DHT22;5198;52.382;9.020;2022-10-16T06:30:48;13.60;99.90
10306;DHT22;5198;52.382;9.020;2022-10-16T06:34:51;13.70;99.90
10306;DHT22;5198;52.382;9.020;2022-10-16T06:38:55;13.80;99.90
10306;DHT22;5198;52.382;9.020;2022-10-16T06:42:58;13.80;99.90
10306;DHT22;5198;52.382;9.020;2022-10-16T06:47:01;14.00;99.90
10306;DHT22;5198;52.382;9.020;2022-10-16T06:51:06;14.20;99.90
10306;DHT22;5198;52.382;9.020;2022-10-16T06:55:10;14.50;99.90
10306;DHT22;5198;52.382;9.020;2022-10-16T11:27:49;24.70;99.90
10306;DHT22;5198;52.382;9.020;2022-10-16T11:31:55;24.40;99.90
10306;DHT22;5198;52.382;9.020;2022-10-16T11:36:01;23.80;99.90
10306;DHT22;5198;52.382;9.020;2022-10-16T11:40:14;23.50;99.90
10306;DHT22;5198;52.382;9.020;2022-10-16T11:44:23;24.10;99.90
10306;DHT22;5198;52.382;9.020;2022-10-16T11:48:30;24.30;99.90
10306;DHT22;5198;52.382;9.020;2022-10-16T11:52:36;24.50;99.90
10306;DHT22;5198;52.382;9.020;2022-10-16T11:56:42;25.40;99.90
10306;DHT22;5198;52.382;9.020;2022-10-16T12:00:51;25.60;99.90
10306;DHT22;5198;52.382;9.020;2022-10-16T12:04:57;25.70;99.90
10306;DHT22;5198;52.382;9.020;2022-10-16T12:09:04;26.10;99.90
10306;DHT22;5198;52.382;9.020;2022-10-16T12:17:33;26.50;99.90
10306;DHT22;5198;52.382;9.020;2022-10-16T12:21:37;26.70;99.90
10306;DHT22;5198;52.382;9.020;2022-10-16T12:25:40;26.80;99.90
10306;DHT22;5198;52.382;9.020;2022-10-16T12:29:48;26.50;99.90
10306;DHT22;5198;52.382;9.020;2022-10-16T12:33:59;26.10;99.90
10306;DHT22;5198;52.382;9.020;2022-10-16T12:38:06;25.60;99.90
10306;DHT22;5198;52.382;9.020;2022-10-16T12:42:20;25.10;99.90
10306;DHT22;5198;52.382;9.020;2022-10-16T12:46:24;24.70;99.90
10306;DHT22;5198;52.382;9.020;2022-10-16T12:50:37;24.30;99.90
10306;DHT22;5198;52.382;9.020;2022-10-16T12:54:42;23.90;99.90
10306;DHT22;5198;52.382;9.020;2022-10-16T13:03:15;23.10;99.90
10306;DHT22;5198;52.382;9.020;2022-10-16T13:07:31;22.70;99.90
10306;DHT22;5198;52.382;9.020;2022-10-16T13:11:44;22.30;99.90
10306;DHT22;5198;52.382;9.020;2022-10-16T13:15:58;22.10;99.90
10306;DHT22;5198;52.382;9.020;2022-10-16T13:20:09;21.90;99.90
10306;DHT22;5198;52.382;9.020;2022-10-16T13:24:18;21.80;99.90
10306;DHT22;5198;52.382;9.020;2022-10-16T13:28:22;21.50;99.90
10306;DHT22;5198;52.382;9.020;2022-10-16T13:32:30;21.40;99.90
10306;DHT22;5198;52.382;9.020;2022-10-16T13:36:34;21.30;99.90
10306;DHT22;5198;52.382;9.020;2022-10-16T13:40:47;21.20;99.90
10306;DHT22;5198;52.382;9.020;2022-10-16T13:44:51;21.10;99.90
10306;DHT22;5198;52.382;9.020;2022-10-16T13:48:57;21.10;99.90
10306;DHT22;5198;52.382;9.020;2022-10-16T13:53:03;21.00;99.90
10306;DHT22;5198;52.382;9.020;2022-10-16T13:57:08;20.90;99.90
10306;DHT22;5198;52.382;9.020;2022-10-16T14:01:27;20.80;99.90
10306;DHT22;5198;52.382;9.020;2022-10-16T14:05:33;20.80;99.90
10306;DHT22;5198;52.382;9.020;2022-10-16T14:09:36;20.70;99.90
10306;DHT22;5198;52.382;9.020;2022-10-16T14:13:44;20.70;99.90
10306;DHT22;5198;52.382;9.020;2022-10-16T14:17:49;20.60;99.90
10306;DHT22;5198;52.382;9.020;2022-10-16T14:21:52;20.60;99.90
10306;DHT22;5198;52.382;9.020;2022-10-16T14:26:05;20.60;99.90
10306;DHT22;5198;52.382;9.020;2022-10-16T14:30:14;20.70;99.90
10306;DHT22;5198;52.382;9.020;2022-10-16T14:34:24;20.80;99.90
10306;DHT22;5198;52.382;9.020;2022-10-16T14:38:28;20.90;99.90
10306;DHT22;5198;52.382;9.020;2022-10-16T14:42:32;21.10;99.90
10306;DHT22;5198;52.382;9.020;2022-10-16T14:46:36;21.20;99.90
10306;DHT22;5198;52.382;9.020;2022-10-16T14:50:40;21.30;99.90
10306;DHT22;5198;52.382;9.020;2022-10-16T14:54:42;21.60;99.90
10306;DHT22;5198;52.382;9.020;2022-10-16T14:58:45;21.80;99.90
10306;DHT22;5198;52.382;9.020;2022-10-16T15:02:50;22.10;99.90
10306;DHT22;5198;52.382;9.020;2022-10-16T15:06:53;22.40;99.90
10306;DHT22;5198;52.382;9.020;2022-10-16T15:10:56;22.70;99.90
10306;DHT22;5198;52.382;9.020;2022-10-16T15:14:59;23.00;99.90
10306;DHT22;5198;52.382;9.020;2022-10-16T15:19:03;23.10;99.90
10306;DHT22;5198;52.382;9.020;2022-10-16T15:23:09;23.20;99.90
10306;DHT22;5198;52.382;9.020;2022-10-16T15:27:13;23.30;99.90
10306;DHT22;5198;52.382;9.020;2022-10-16T15:31:16;23.40;99.90
10306;DHT22;5198;52.382;9.020;2022-10-16T15:35:20;23.30;99.90
10306;DHT22;5198;52.382;9.020;2022-10-16T15:39:23;23.20;99.90
10306;DHT22;5198;52.382;9.020;2022-10-16T15:43:26;23.10;99.90
10306;DHT22;5198;52.382;9.020;2022-10-16T15:47:30;23.10;99.90
10306;DHT22;5198;52.382;9.020;2022-10-16T15:51:35;23.10;99.90
10306;DHT22;5198;52.382;9.020;2022-10-16T15:55:40;22.90;99.90
10306;DHT22;5198;52.382;9.020;2022-10-16T15:59:43;22.60;99.90
10306;DHT22;5198;52.382;9.020;2022-10-16T16:03:46;22.30;99.90
10306;DHT22;5198;52.382;9.020;2022-10-16T16:07:50;22.00;99.90
10306;DHT22;5198;52.382;9.020;2022-10-16T16:11:53;21.80;99.90
10306;DHT22;5198;52.382;9.020;2022-10-16T16:15:57;21.40;99.90
10306;DHT22;5198;52.382;9.020;2022-10-16T16:20:00;21.20;99.90
10306;DHT22;5198;52.382;9.020;2022-10-16T16:24:04;20.90;99.90
10306;DHT22;5198;52.382;9.020;2022-10-16T16:28:10;20.60;99.90
10306;DHT22;5198;52.382;9.020;2022-10-16T16:32:15;20.40;99.90
10306;DHT22;5198;52.382;9.020;2022-10-16T16:36:18;20.20;99.90
10306;DHT22;5198;52.382;9.020;2022-10-16T16:40:23;20.00;99.90
10306;DHT22;5198;52.382;9.020;2022-10-16T16:44:26;19.80;99.90
10306;DHT22;5198;52.382;9.020;2022-10-16T16:48:29;19.60;99.90
10306;DHT22;5198;52.382;9.020;2022-10-16T16:52:32;19.40;99.90
10306;DHT22;5198;52.382;9.020;2022-10-16T16:56:36;19.30;99.90
10306;DHT22;5198;52.382;9.020;2022-10-16T17:00:44;19.10;99.90
10306;DHT22;5198;52.382;9.020;2022-10-16T17:04:57;18.90;99.90
10306;DHT22;5198;52.382;9.020;2022-10-16T17:09:01;18.80;99.90
10306;DHT22;5198;52.382;9.020;2022-10-16T17:13:06;18.70;99.90
10306;DHT22;5198;52.382;9.020;2022-10-16T17:17:09;18.50;99.90
10306;DHT22;5198;52.382;9.020;2022-10-16T17:21:12;18.40;99.90
10306;DHT22;5198;52.382;9.020;2022-10-16T17:25:15;18.30;99.90
10306;DHT22;5198;52.382;9.020;2022-10-16T17:29:19;18.20;99.90
10306;DHT22;5198;52.382;9.020;2022-10-16T17:33:22;18.10;99.90
10306;DHT22;5198;52.382;9.020;2022-10-16T17:37:25;18.10;99.90
10306;DHT22;5198;52.382;9.020;2022-10-16T17:41:28;17.90;99.90
10306;DHT22;5198;52.382;9.020;2022-10-16T17:45:35;17.90;99.90
10306;DHT22;5198;52.382;9.020;2022-10-16T17:49:38;17.80;99.90
10306;DHT22;5198;52.382;9.020;2022-10-16T17:53:41;17.60;99.90
10306;DHT22;5198;52.382;9.020;2022-10-16T17:57:45;17.60;99.90
10306;DHT22;5198;52.382;9.020;2022-10-16T18:01:50;17.60;99.90
10306;DHT22;5198;52.382;9.020;2022-10-16T18:05:53;17.50;99.90
10306;DHT22;5198;52.382;9.020;2022-10-16T18:09:56;17.40;99.90
10306;DHT22;5198;52.382;9.020;2022-10-16T18:14:19;17.30;99.90
10306;DHT22;5198;52.382;9.020;2022-10-16T18:18:24;17.30;99.90
10306;DHT22;5198;52.382;9.020;2022-10-16T18:22:31;17.20;99.90
10306;DHT22;5198;52.382;9.020;2022-10-16T18:26:36;17.20;99.90
10306;DHT22;5198;52.382;9.020;2022-10-16T18:30:39;17.10;99.90
10306;DHT22;5198;52.382;9.020;2022-10-16T18:34:44;17.00;99.90
10306;DHT22;5198;52.382;9.020;2022-10-16T18:38:47;16.90;99.90
10306;DHT22;5198;52.382;9.020;2022-10-16T18:42:50;16.80;99.90
10306;DHT22;5198;52.382;9.020;2022-10-16T18:46:54;16.80;99.90
10306;DHT22;5198;52.382;9.020;2022-10-16T18:51:08;16.70;99.90
10306;DHT22;5198;52.382;9.020;2022-10-16T18:55:11;16.60;99.90
10306;DHT22;5198;52.382;9.020;2022-10-16T18:59:14;16.50;99.90
10306;DHT22;5198;52.382;9.020;2022-10-16T19:03:17;16.50;99.90
10306;DHT22;5198;52.382;9.020;2022-10-16T19:07:22;16.40;99.90
10306;DHT22;5198;52.382;9.020;2022-10-16T19:11:26;16.40;99.90
10306;DHT22;5198;52.382;9.020;2022-10-16T19:15:29;16.30;99.90
10306;DHT22;5198;52.382;9.020;2022-10-16T19:19:32;16.30;99.90
10306;DHT22;5198;52.382;9.020;2022-10-16T19:23:37;16.30;99.90
10306;DHT22;5198;52.382;9.020;2022-10-16T19:27:40;16.30;99.90
10306;DHT22;5198;52.382;9.020;2022-10-16T19:31:43;16.20;99.90
10306;DHT22;5198;52.382;9.020;2022-10-16T19:35:45;16.20;99.90
10306;DHT22;5198;52.382;9.020;2022-10-16T19:39:50;16.10;99.90
10306;DHT22;5198;52.382;9.020;2022-10-16T19:43:53;16.10;99.90
10306;DHT22;5198;52.382;9.020;2022-10-16T19:47:56;16.00;99.90
10306;DHT22;5198;52.382;9.020;2022-10-16T19:51:59;15.90;99.90
10306;DHT22;5198;52.382;9.020;2022-10-16T19:56:09;15.90;99.90
10306;DHT22;5198;52.382;9.020;2022-10-16T20:00:13;15.90;99.90
10306;DHT22;5198;52.382;9.020;2022-10-16T20:04:18;15.90;99.90
10306;DHT22;5198;52.382;9.020;2022-10-16T20:08:21;15.80;99.90
10306;DHT22;5198;52.382;9.020;2022-10-16T20:12:25;15.80;99.90
10306;DHT22;5198;52.382;9.020;2022-10-16T20:16:28;15.80;99.90
10306;DHT22;5198;52.382;9.020;2022-10-16T20:20:35;15.70;99.90
10306;DHT22;5198;52.382;9.020;2022-10-16T20:24:38;15.70;99.90
10306;DHT22;5198;52.382;9.020;2022-10-16T20:28:42;15.70;99.90
10306;DHT22;5198;52.382;9.020;2022-10-16T20:32:46;15.70;99.90
10306;DHT22;5198;52.382;9.020;2022-10-16T20:36:48;15.60;99.90
10306;DHT22;5198;52.382;9.020;2022-10-16T20:40:51;15.60;99.90
10306;DHT22;5198;52.382;9.020;2022-10-16T20:44:55;15.60;99.90
10306;DHT22;5198;52.382;9.020;2022-10-16T20:48:58;15.60;99.90
10306;DHT22;5198;52.382;9.020;2022-10-16T20:53:11;15.60;99.90
10306;DHT22;5198;52.382;9.020;2022-10-16T20:57:14;15.60;99.90
10306;DHT22;5198;52.382;9.020;2022-10-16T21:01:19;15.60;99.90
10306;DHT22;5198;52.382;9.020;2022-10-16T21:05:22;15.50;99.90
10306;DHT22;5198;52.382;9.020;2022-10-16T21:09:29;15.50;99.90
10306;DHT22;5198;52.382;9.020;2022-10-16T21:13:32;15.50;99.90
10306;DHT22;5198;52.382;9.020;2022-10-16T21:17:36;15.50;99.90
10306;DHT22;5198;52.382;9.020;2022-10-16T21:21:39;15.50;99.90
10306;DHT22;5198;52.382;9.020;2022-10-16T21:25:46;15.50;99.90
10306;DHT22;5198;52.382;9.020;2022-10-16T21:29:51;15.50;99.90
10306;DHT22;5198;52.382;9.020;2022-10-16T21:33:55;15.50;99.90
10306;DHT22;5198;52.382;9.020;2022-10-16T21:37:58;15.50;99.90
10306;DHT22;5198;52.382;9.020;2022-10-16T21:42:02;15.50;99.90
10306;DHT22;5198;52.382;9.020;2022-10-16T21:46:05;15.50;99.90
10306;DHT22;5198;52.382;9.020;2022-10-16T21:50:09;15.50;99.90
10306;DHT22;5198;52.382;9.020;2022-10-16T21:54:13;15.50;99.90
10306;DHT22;5198;52.382;9.020;2022-10-16T21:58:16;15.50;99.90
10306;DHT22;5198;52.382;9.020;2022-10-16T22:02:19;15.50;99.90
10306;DHT22;5198;52.382;9.020;2022-10-16T22:06:23;15.50;99.90
10306;DHT22;5198;52.382;9.020;2022-10-16T22:10:28;15.50;99.90
10306;DHT22;5198;52.382;9.020;2022-10-16T22:14:31;15.50;99.90
10306;DHT22;5198;52.382;9.020;2022-10-16T22:18:34;15.50;99.90
10306;DHT22;5198;52.382;9.020;2022-10-16T22:22:38;15.50;99.90
10306;DHT22;5198;52.382;9.020;2022-10-16T22:26:41;15.50;99.90
10306;DHT22;5198;52.382;9.020;2022-10-16T22:30:44;15.50;99.90
10306;DHT22;5198;52.382;9.020;2022-10-16T22:34:47;15.50;99.90
10306;DHT22;5198;52.382;9.020;2022-10-16T22:38:51;15.50;99.90
10306;DHT22;5198;52.382;9.020;2022-10-16T22:42:54;15.50;99.90
10306;DHT22;5198;52.382;9.020;2022-10-16T22:46:57;15.40;99.90
10306;DHT22;5198;52.382;9.020;2022-10-16T22:51:00;15.40;99.90
10306;DHT22;5198;52.382;9.020;2022-10-16T22:55:05;15.40;99.90
10306;DHT22;5198;52.382;9.020;2022-10-16T22:59:08;15.40;99.90
10306;DHT22;5198;52.382;9.020;2022-10-16T23:03:11;15.40;99.90
10306;DHT22;5198;52.382;9.020;2022-10-16T23:07:14;15.40;99.90
10306;DHT22;5198;52.382;9.020;2022-10-16T23:11:18;15.40;99.90
10306;DHT22;5198;52.382;9.020;2022-10-16T23:15:21;15.30;99.90
10306;DHT22;5198;52.382;9.020;2022-10-16T23:19:24;15.30;99.90
10306;DHT22;5198;52.382;9.020;2022-10-16T23:23:27;15.30;99.90
10306;DHT22;5198;52.382;9.020;2022-10-16T23:27:31;15.30;99.90
10306;DHT22;5198;52.382;9.020;2022-10-16T23:31:34;15.20;99.90
10306;DHT22;5198;52.382;9.020;2022-10-16T23:35:38;15.20;99.90
10306;DHT22;5198;52.382;9.020;2022-10-16T23:39:40;15.20;99.90
10306;DHT22;5198;52.382;9.020;2022-10-16T23:43:45;15.10;99.90
10306;DHT22;5198;52.382;9.020;2022-10-16T23:47:47;15.10;99.90
10306;DHT22;5198;52.382;9.020;2022-10-16T23:51:50;15.10;99.90
10306;DHT22;5198;52.382;9.020;2022-10-16T23:55:53;15.00;99.90
10306;DHT22;5198;52.382;9.020;2022-10-16T23:59:57;15.00;99.90
